Labette, Kansas
Current Conditions -  °F | °C
As of 3:52 AM on Thursday 23 Oct 2014 (Local Time) from KPPF Reporting Station
Broken Clouds Broken Clouds  
Wind Chill: 61°   Ceiling: 11000
Heat Index: 61°   Visibility: 10mi
Dew Point: 58°   Wind: 5mph
Humidity: 90%   Direction: 160°SSE
Pressure: 30.12"   Gusts: NA
Location:  37.2003°N, 95.1784°W
Report Text: KPPF 230852Z AUTO 16004KT 10SM BKN110 16/14 A3012 RMK AO2 RAE16 SLP192 P0000 60000 T01610144 58003
Loading
Personal Weather Stations






























Interactive Weather Map
Tropical Storm Tracking
New forecast layout! Learn more

10-Day Weather Forecast

Advertisements
Track Severe Weather on mobile